sensor_id;sensor_type;location;lat;lon;timestamp;P1;durP1;ratioP1;P2;durP2;ratioP2
36257;SDS011;22294;52.044;4.582;2023-03-01T00:01:06;19.13;;;13.38;;
36257;SDS011;22294;52.044;4.582;2023-03-01T00:03:34;19.25;;;12.77;;
36257;SDS011;22294;52.044;4.582;2023-03-01T00:05:59;21.17;;;13.82;;
36257;SDS011;22294;52.044;4.582;2023-03-01T00:08:26;19.45;;;13.35;;
36257;SDS011;22294;52.044;4.582;2023-03-01T00:13:27;20.38;;;13.65;;
36257;SDS011;22294;52.044;4.582;2023-03-01T00:15:53;18.67;;;13.30;;
36257;SDS011;22294;52.044;4.582;2023-03-01T00:18:18;20.45;;;13.52;;
36257;SDS011;22294;52.044;4.582;2023-03-01T00:20:49;19.92;;;13.50;;
36257;SDS011;22294;52.044;4.582;2023-03-01T00:23:17;22.95;;;13.05;;
36257;SDS011;22294;52.044;4.582;2023-03-01T00:25:42;17.75;;;12.52;;
36257;SDS011;22294;52.044;4.582;2023-03-01T00:28:08;18.58;;;12.70;;
36257;SDS011;22294;52.044;4.582;2023-03-01T00:30:33;19.30;;;12.80;;
36257;SDS011;22294;52.044;4.582;2023-03-01T00:32:59;19.45;;;13.00;;
36257;SDS011;22294;52.044;4.582;2023-03-01T00:35:24;18.50;;;13.07;;
36257;SDS011;22294;52.044;4.582;2023-03-01T00:37:49;20.92;;;13.48;;
36257;SDS011;22294;52.044;4.582;2023-03-01T00:40:32;23.05;;;12.95;;
36257;SDS011;22294;52.044;4.582;2023-03-01T00:42:59;19.60;;;13.73;;
36257;SDS011;22294;52.044;4.582;2023-03-01T00:45:26;23.17;;;13.95;;
36257;SDS011;22294;52.044;4.582;2023-03-01T00:47:52;20.38;;;15.30;;
36257;SDS011;22294;52.044;4.582;2023-03-01T00:50:17;20.48;;;14.52;;
36257;SDS011;22294;52.044;4.582;2023-03-01T00:52:44;23.05;;;14.57;;
36257;SDS011;22294;52.044;4.582;2023-03-01T00:55:11;21.23;;;14.82;;
36257;SDS011;22294;52.044;4.582;2023-03-01T00:57:36;21.83;;;14.88;;
36257;SDS011;22294;52.044;4.582;2023-03-01T01:00:03;23.05;;;14.73;;
36257;SDS011;22294;52.044;4.582;2023-03-01T01:02:32;20.58;;;13.98;;
36257;SDS011;22294;52.044;4.582;2023-03-01T01:04:58;21.05;;;13.77;;
36257;SDS011;22294;52.044;4.582;2023-03-01T01:07:24;20.45;;;14.63;;
36257;SDS011;22294;52.044;4.582;2023-03-01T01:09:50;21.48;;;13.48;;
36257;SDS011;22294;52.044;4.582;2023-03-01T01:12:15;29.27;;;14.18;;
36257;SDS011;22294;52.044;4.582;2023-03-01T01:14:41;21.70;;;13.80;;
36257;SDS011;22294;52.044;4.582;2023-03-01T01:17:06;22.35;;;14.77;;
36257;SDS011;22294;52.044;4.582;2023-03-01T01:19:31;20.63;;;14.68;;
36257;SDS011;22294;52.044;4.582;2023-03-01T01:21:57;22.15;;;14.93;;
36257;SDS011;22294;52.044;4.582;2023-03-01T01:24:22;22.95;;;14.23;;
36257;SDS011;22294;52.044;4.582;2023-03-01T01:26:47;22.20;;;15.65;;
36257;SDS011;22294;52.044;4.582;2023-03-01T01:29:14;25.95;;;15.77;;
36257;SDS011;22294;52.044;4.582;2023-03-01T01:31:40;25.50;;;15.25;;
36257;SDS011;22294;52.044;4.582;2023-03-01T01:34:08;27.17;;;15.45;;
36257;SDS011;22294;52.044;4.582;2023-03-01T01:36:38;23.55;;;15.45;;
36257;SDS011;22294;52.044;4.582;2023-03-01T01:39:04;22.98;;;15.77;;
36257;SDS011;22294;52.044;4.582;2023-03-01T01:41:29;28.27;;;16.70;;
36257;SDS011;22294;52.044;4.582;2023-03-01T01:44:40;26.20;;;16.80;;
36257;SDS011;22294;52.044;4.582;2023-03-01T01:52:08;26.77;;;16.63;;
36257;SDS011;22294;52.044;4.582;2023-03-01T01:54:49;29.88;;;17.73;;
36257;SDS011;22294;52.044;4.582;2023-03-01T01:57:19;27.80;;;18.02;;
36257;SDS011;22294;52.044;4.582;2023-03-01T02:02:23;30.17;;;17.67;;
36257;SDS011;22294;52.044;4.582;2023-03-01T02:04:49;30.60;;;18.55;;
36257;SDS011;22294;52.044;4.582;2023-03-01T02:07:21;34.78;;;18.75;;
36257;SDS011;22294;52.044;4.582;2023-03-01T02:09:49;28.83;;;18.08;;
36257;SDS011;22294;52.044;4.582;2023-03-01T02:12:18;30.55;;;17.85;;
36257;SDS011;22294;52.044;4.582;2023-03-01T02:14:46;29.83;;;18.27;;
36257;SDS011;22294;52.044;4.582;2023-03-01T02:17:11;33.15;;;19.02;;
36257;SDS011;22294;52.044;4.582;2023-03-01T02:19:48;32.55;;;19.20;;
36257;SDS011;22294;52.044;4.582;2023-03-01T02:22:33;33.05;;;18.58;;
36257;SDS011;22294;52.044;4.582;2023-03-01T02:25:08;33.42;;;19.48;;
36257;SDS011;22294;52.044;4.582;2023-03-01T02:30:31;31.70;;;18.25;;
36257;SDS011;22294;52.044;4.582;2023-03-01T02:32:57;29.92;;;19.63;;
36257;SDS011;22294;52.044;4.582;2023-03-01T02:35:27;32.85;;;18.67;;
36257;SDS011;22294;52.044;4.582;2023-03-01T02:37:55;33.50;;;20.27;;
36257;SDS011;22294;52.044;4.582;2023-03-01T02:40:22;31.45;;;19.27;;
36257;SDS011;22294;52.044;4.582;2023-03-01T02:42:50;31.85;;;19.85;;
36257;SDS011;22294;52.044;4.582;2023-03-01T02:45:24;31.73;;;19.77;;
36257;SDS011;22294;52.044;4.582;2023-03-01T02:47:53;32.88;;;20.38;;
36257;SDS011;22294;52.044;4.582;2023-03-01T02:50:25;34.78;;;20.45;;
36257;SDS011;22294;52.044;4.582;2023-03-01T02:52:56;32.83;;;19.27;;
36257;SDS011;22294;52.044;4.582;2023-03-01T02:55:29;32.42;;;18.88;;
36257;SDS011;22294;52.044;4.582;2023-03-01T02:57:55;33.05;;;20.27;;
36257;SDS011;22294;52.044;4.582;2023-03-01T03:00:26;36.33;;;20.80;;
36257;SDS011;22294;52.044;4.582;2023-03-01T03:02:59;34.72;;;19.88;;
36257;SDS011;22294;52.044;4.582;2023-03-01T03:05:28;33.25;;;19.92;;
36257;SDS011;22294;52.044;4.582;2023-03-01T03:07:56;30.42;;;18.98;;
36257;SDS011;22294;52.044;4.582;2023-03-01T03:10:23;35.17;;;21.20;;
36257;SDS011;22294;52.044;4.582;2023-03-01T03:12:55;34.20;;;21.50;;
36257;SDS011;22294;52.044;4.582;2023-03-01T03:15:25;36.58;;;21.67;;
36257;SDS011;22294;52.044;4.582;2023-03-01T03:17:52;36.75;;;22.35;;
36257;SDS011;22294;52.044;4.582;2023-03-01T03:20:19;40.72;;;22.80;;
36257;SDS011;22294;52.044;4.582;2023-03-01T03:22:47;37.28;;;22.15;;
36257;SDS011;22294;52.044;4.582;2023-03-01T03:25:14;85.80;;;22.75;;
36257;SDS011;22294;52.044;4.582;2023-03-01T03:27:41;95.80;;;22.23;;
36257;SDS011;22294;52.044;4.582;2023-03-01T03:30:09;60.40;;;21.67;;
36257;SDS011;22294;52.044;4.582;2023-03-01T03:32:37;165.60;;;24.98;;
36257;SDS011;22294;52.044;4.582;2023-03-01T03:35:04;169.60;;;24.05;;
36257;SDS011;22294;52.044;4.582;2023-03-01T03:37:38;153.20;;;25.92;;
36257;SDS011;22294;52.044;4.582;2023-03-01T03:40:23;148.10;;;22.15;;
36257;SDS011;22294;52.044;4.582;2023-03-01T03:42:49;182.85;;;24.48;;
36257;SDS011;22294;52.044;4.582;2023-03-01T03:45:15;184.50;;;22.50;;
36257;SDS011;22294;52.044;4.582;2023-03-01T03:47:41;155.50;;;21.83;;
36257;SDS011;22294;52.044;4.582;2023-03-01T03:50:07;171.82;;;22.77;;
36257;SDS011;22294;52.044;4.582;2023-03-01T03:52:34;124.22;;;21.73;;
36257;SDS011;22294;52.044;4.582;2023-03-01T03:54:59;157.52;;;22.20;;
36257;SDS011;22294;52.044;4.582;2023-03-01T03:57:24;187.32;;;24.27;;
36257;SDS011;22294;52.044;4.582;2023-03-01T03:59:49;152.80;;;20.52;;
36257;SDS011;22294;52.044;4.582;2023-03-01T04:02:15;178.10;;;22.23;;
36257;SDS011;22294;52.044;4.582;2023-03-01T04:04:47;83.03;;;20.27;;
36257;SDS011;22294;52.044;4.582;2023-03-01T04:07:15;103.40;;;19.83;;
36257;SDS011;22294;52.044;4.582;2023-03-01T04:09:41;112.55;;;20.15;;
36257;SDS011;22294;52.044;4.582;2023-03-01T04:12:07;132.60;;;19.73;;
36257;SDS011;22294;52.044;4.582;2023-03-01T04:14:33;130.65;;;20.52;;
36257;SDS011;22294;52.044;4.582;2023-03-01T04:16:58;157.88;;;21.48;;
36257;SDS011;22294;52.044;4.582;2023-03-01T04:19:23;140.35;;;20.23;;
36257;SDS011;22294;52.044;4.582;2023-03-01T04:21:49;157.68;;;20.85;;
36257;SDS011;22294;52.044;4.582;2023-03-01T04:24:14;199.90;;;23.27;;
36257;SDS011;22294;52.044;4.582;2023-03-01T04:26:40;201.43;;;22.48;;
36257;SDS011;22294;52.044;4.582;2023-03-01T04:29:05;235.95;;;25.35;;
36257;SDS011;22294;52.044;4.582;2023-03-01T04:31:30;144.90;;;20.95;;
36257;SDS011;22294;52.044;4.582;2023-03-01T04:33:56;197.13;;;23.05;;
36257;SDS011;22294;52.044;4.582;2023-03-01T04:36:22;162.35;;;22.70;;
36257;SDS011;22294;52.044;4.582;2023-03-01T04:38:52;177.70;;;22.52;;
36257;SDS011;22294;52.044;4.582;2023-03-01T04:41:19;206.25;;;26.45;;
36257;SDS011;22294;52.044;4.582;2023-03-01T04:43:46;170.23;;;23.58;;
36257;SDS011;22294;52.044;4.582;2023-03-01T04:46:13;137.15;;;21.20;;
36257;SDS011;22294;52.044;4.582;2023-03-01T04:48:40;125.95;;;20.63;;
36257;SDS011;22294;52.044;4.582;2023-03-01T04:51:07;72.25;;;18.38;;
36257;SDS011;22294;52.044;4.582;2023-03-01T04:53:34;75.47;;;18.13;;
36257;SDS011;22294;52.044;4.582;2023-03-01T04:56:03;99.88;;;19.40;;
36257;SDS011;22294;52.044;4.582;2023-03-01T04:58:29;113.55;;;19.30;;
36257;SDS011;22294;52.044;4.582;2023-03-01T05:00:54;123.30;;;19.95;;
36257;SDS011;22294;52.044;4.582;2023-03-01T05:03:20;116.00;;;19.92;;
36257;SDS011;22294;52.044;4.582;2023-03-01T05:05:48;142.55;;;20.17;;
36257;SDS011;22294;52.044;4.582;2023-03-01T05:08:15;120.72;;;19.35;;
36257;SDS011;22294;52.044;4.582;2023-03-01T05:10:46;105.47;;;19.30;;
36257;SDS011;22294;52.044;4.582;2023-03-01T05:13:14;112.60;;;22.60;;
36257;SDS011;22294;52.044;4.582;2023-03-01T05:15:45;71.85;;;20.67;;
36257;SDS011;22294;52.044;4.582;2023-03-01T05:18:12;105.05;;;19.45;;
36257;SDS011;22294;52.044;4.582;2023-03-01T05:20:37;86.70;;;18.75;;
36257;SDS011;22294;52.044;4.582;2023-03-01T05:23:03;88.88;;;19.52;;
36257;SDS011;22294;52.044;4.582;2023-03-01T05:25:30;58.72;;;18.42;;
36257;SDS011;22294;52.044;4.582;2023-03-01T05:27:58;80.25;;;18.63;;
36257;SDS011;22294;52.044;4.582;2023-03-01T05:30:30;52.15;;;17.73;;
36257;SDS011;22294;52.044;4.582;2023-03-01T05:32:57;75.75;;;18.52;;
36257;SDS011;22294;52.044;4.582;2023-03-01T05:35:23;46.00;;;18.30;;
36257;SDS011;22294;52.044;4.582;2023-03-01T05:37:48;61.03;;;18.63;;
36257;SDS011;22294;52.044;4.582;2023-03-01T05:40:15;53.15;;;17.88;;
36257;SDS011;22294;52.044;4.582;2023-03-01T05:42:46;54.95;;;18.48;;
36257;SDS011;22294;52.044;4.582;2023-03-01T05:47:40;43.47;;;18.52;;
36257;SDS011;22294;52.044;4.582;2023-03-01T05:50:19;39.83;;;17.87;;
36257;SDS011;22294;52.044;4.582;2023-03-01T05:52:51;41.95;;;16.83;;
36257;SDS011;22294;52.044;4.582;2023-03-01T05:55:27;21.83;;;13.88;;
36257;SDS011;22294;52.044;4.582;2023-03-01T05:57:57;19.52;;;14.80;;
36257;SDS011;22294;52.044;4.582;2023-03-01T06:00:23;23.42;;;14.75;;
36257;SDS011;22294;52.044;4.582;2023-03-01T06:02:48;20.95;;;14.93;;
36257;SDS011;22294;52.044;4.582;2023-03-01T06:05:16;34.70;;;15.93;;
36257;SDS011;22294;52.044;4.582;2023-03-01T06:07:42;52.72;;;17.10;;
36257;SDS011;22294;52.044;4.582;2023-03-01T06:10:09;30.52;;;18.42;;
36257;SDS011;22294;52.044;4.582;2023-03-01T06:12:36;28.92;;;18.42;;
36257;SDS011;22294;52.044;4.582;2023-03-01T06:15:03;37.88;;;21.30;;
36257;SDS011;22294;52.044;4.582;2023-03-01T06:17:29;27.95;;;18.77;;
36257;SDS011;22294;52.044;4.582;2023-03-01T06:19:55;28.23;;;18.92;;
36257;SDS011;22294;52.044;4.582;2023-03-01T06:22:21;25.98;;;16.33;;
36257;SDS011;22294;52.044;4.582;2023-03-01T06:24:46;22.65;;;15.50;;
36257;SDS011;22294;52.044;4.582;2023-03-01T06:27:11;23.45;;;15.95;;
36257;SDS011;22294;52.044;4.582;2023-03-01T06:29:37;23.23;;;15.05;;
36257;SDS011;22294;52.044;4.582;2023-03-01T06:32:03;22.23;;;14.98;;
36257;SDS011;22294;52.044;4.582;2023-03-01T06:34:29;21.77;;;14.93;;
36257;SDS011;22294;52.044;4.582;2023-03-01T06:36:55;22.08;;;14.18;;
36257;SDS011;22294;52.044;4.582;2023-03-01T06:39:20;22.92;;;15.18;;
36257;SDS011;22294;52.044;4.582;2023-03-01T06:41:46;26.45;;;15.75;;
36257;SDS011;22294;52.044;4.582;2023-03-01T06:44:11;20.17;;;14.50;;
36257;SDS011;22294;52.044;4.582;2023-03-01T06:46:36;22.17;;;14.75;;
36257;SDS011;22294;52.044;4.582;2023-03-01T06:49:01;20.35;;;15.02;;
36257;SDS011;22294;52.044;4.582;2023-03-01T06:51:29;20.90;;;14.32;;
36257;SDS011;22294;52.044;4.582;2023-03-01T06:53:55;20.40;;;14.10;;
36257;SDS011;22294;52.044;4.582;2023-03-01T06:56:20;21.55;;;14.88;;
36257;SDS011;22294;52.044;4.582;2023-03-01T06:58:45;20.58;;;14.43;;
36257;SDS011;22294;52.044;4.582;2023-03-01T07:01:11;20.50;;;14.65;;
36257;SDS011;22294;52.044;4.582;2023-03-01T07:03:36;23.00;;;14.57;;
36257;SDS011;22294;52.044;4.582;2023-03-01T07:06:02;21.13;;;14.23;;
36257;SDS011;22294;52.044;4.582;2023-03-01T07:08:29;41.67;;;16.08;;
36257;SDS011;22294;52.044;4.582;2023-03-01T07:10:58;23.50;;;15.43;;
36257;SDS011;22294;52.044;4.582;2023-03-01T07:13:24;21.30;;;11.60;;
36257;SDS011;22294;52.044;4.582;2023-03-01T07:15:50;24.60;;;15.80;;
36257;SDS011;22294;52.044;4.582;2023-03-01T07:18:15;22.45;;;16.35;;
36257;SDS011;22294;52.044;4.582;2023-03-01T07:20:40;24.38;;;16.25;;
36257;SDS011;22294;52.044;4.582;2023-03-01T07:23:06;23.42;;;16.05;;
36257;SDS011;22294;52.044;4.582;2023-03-01T07:25:32;24.30;;;15.68;;
36257;SDS011;22294;52.044;4.582;2023-03-01T07:27:57;22.98;;;15.63;;
36257;SDS011;22294;52.044;4.582;2023-03-01T07:30:23;26.27;;;16.92;;
36257;SDS011;22294;52.044;4.582;2023-03-01T07:32:52;25.45;;;17.10;;
36257;SDS011;22294;52.044;4.582;2023-03-01T07:35:18;29.25;;;17.48;;
36257;SDS011;22294;52.044;4.582;2023-03-01T07:37:43;30.33;;;18.52;;
36257;SDS011;22294;52.044;4.582;2023-03-01T07:40:09;27.55;;;18.45;;
36257;SDS011;22294;52.044;4.582;2023-03-01T07:42:35;33.40;;;21.55;;
36257;SDS011;22294;52.044;4.582;2023-03-01T07:45:01;31.00;;;19.98;;
36257;SDS011;22294;52.044;4.582;2023-03-01T07:47:26;31.20;;;20.08;;
36257;SDS011;22294;52.044;4.582;2023-03-01T07:49:51;30.63;;;20.20;;
36257;SDS011;22294;52.044;4.582;2023-03-01T07:52:16;27.70;;;19.73;;
36257;SDS011;22294;52.044;4.582;2023-03-01T07:54:42;33.90;;;19.80;;
36257;SDS011;22294;52.044;4.582;2023-03-01T07:57:09;31.73;;;18.92;;
36257;SDS011;22294;52.044;4.582;2023-03-01T07:59:35;28.08;;;17.77;;
36257;SDS011;22294;52.044;4.582;2023-03-01T08:02:00;33.15;;;18.52;;
36257;SDS011;22294;52.044;4.582;2023-03-01T08:04:25;32.20;;;19.85;;
36257;SDS011;22294;52.044;4.582;2023-03-01T08:06:51;32.80;;;19.35;;
36257;SDS011;22294;52.044;4.582;2023-03-01T08:09:17;31.30;;;19.35;;
36257;SDS011;22294;52.044;4.582;2023-03-01T08:11:42;29.45;;;18.27;;
36257;SDS011;22294;52.044;4.582;2023-03-01T08:14:08;44.17;;;20.30;;
36257;SDS011;22294;52.044;4.582;2023-03-01T08:16:33;38.85;;;19.50;;
36257;SDS011;22294;52.044;4.582;2023-03-01T08:19:03;36.60;;;19.38;;
36257;SDS011;22294;52.044;4.582;2023-03-01T08:21:36;32.92;;;18.75;;
36257;SDS011;22294;52.044;4.582;2023-03-01T08:24:02;29.17;;;19.27;;
36257;SDS011;22294;52.044;4.582;2023-03-01T08:26:29;30.55;;;19.23;;
36257;SDS011;22294;52.044;4.582;2023-03-01T08:28:55;29.45;;;19.08;;
36257;SDS011;22294;52.044;4.582;2023-03-01T08:31:22;29.63;;;19.20;;
36257;SDS011;22294;52.044;4.582;2023-03-01T08:33:51;33.70;;;19.75;;
36257;SDS011;22294;52.044;4.582;2023-03-01T08:36:20;31.48;;;20.95;;
36257;SDS011;22294;52.044;4.582;2023-03-01T08:38:56;35.20;;;20.17;;
36257;SDS011;22294;52.044;4.582;2023-03-01T08:41:22;32.78;;;20.38;;
36257;SDS011;22294;52.044;4.582;2023-03-01T08:43:48;30.85;;;20.42;;
36257;SDS011;22294;52.044;4.582;2023-03-01T08:46:13;30.30;;;20.00;;
36257;SDS011;22294;52.044;4.582;2023-03-01T08:48:39;32.33;;;19.98;;
36257;SDS011;22294;52.044;4.582;2023-03-01T08:51:12;29.35;;;19.10;;
36257;SDS011;22294;52.044;4.582;2023-03-01T08:53:39;37.83;;;18.63;;
36257;SDS011;22294;52.044;4.582;2023-03-01T08:56:05;36.25;;;19.42;;
36257;SDS011;22294;52.044;4.582;2023-03-01T08:58:31;24.67;;;15.65;;
36257;SDS011;22294;52.044;4.582;2023-03-01T09:00:57;25.85;;;16.75;;
36257;SDS011;22294;52.044;4.582;2023-03-01T09:03:23;23.50;;;15.00;;
36257;SDS011;22294;52.044;4.582;2023-03-01T09:05:49;22.00;;;15.02;;
36257;SDS011;22294;52.044;4.582;2023-03-01T09:08:16;20.90;;;14.55;;
36257;SDS011;22294;52.044;4.582;2023-03-01T09:10:41;21.60;;;13.57;;
36257;SDS011;22294;52.044;4.582;2023-03-01T09:13:07;18.00;;;11.82;;
36257;SDS011;22294;52.044;4.582;2023-03-01T09:15:32;18.02;;;11.38;;
36257;SDS011;22294;52.044;4.582;2023-03-01T09:17:58;18.40;;;11.77;;
36257;SDS011;22294;52.044;4.582;2023-03-01T09:20:24;14.60;;;10.27;;
36257;SDS011;22294;52.044;4.582;2023-03-01T09:22:49;16.77;;;10.80;;
36257;SDS011;22294;52.044;4.582;2023-03-01T09:25:14;15.63;;;10.93;;
36257;SDS011;22294;52.044;4.582;2023-03-01T09:27:40;16.55;;;10.43;;
36257;SDS011;22294;52.044;4.582;2023-03-01T09:30:05;15.48;;;9.68;;
36257;SDS011;22294;52.044;4.582;2023-03-01T09:32:31;14.45;;;9.48;;
36257;SDS011;22294;52.044;4.582;2023-03-01T09:34:57;12.57;;;9.18;;
36257;SDS011;22294;52.044;4.582;2023-03-01T09:37:32;16.98;;;9.65;;
36257;SDS011;22294;52.044;4.582;2023-03-01T09:39:58;11.85;;;8.93;;
36257;SDS011;22294;52.044;4.582;2023-03-01T09:42:24;11.57;;;8.70;;
36257;SDS011;22294;52.044;4.582;2023-03-01T09:44:57;13.45;;;8.95;;
36257;SDS011;22294;52.044;4.582;2023-03-01T09:47:32;13.65;;;9.02;;
36257;SDS011;22294;52.044;4.582;2023-03-01T09:50:13;12.73;;;8.98;;
36257;SDS011;22294;52.044;4.582;2023-03-01T09:52:43;11.43;;;8.20;;
36257;SDS011;22294;52.044;4.582;2023-03-01T09:55:17;12.85;;;8.43;;
36257;SDS011;22294;52.044;4.582;2023-03-01T09:57:53;12.90;;;8.05;;
36257;SDS011;22294;52.044;4.582;2023-03-01T10:03:12;10.80;;;7.88;;
36257;SDS011;22294;52.044;4.582;2023-03-01T10:08:57;11.15;;;7.30;;
36257;SDS011;22294;52.044;4.582;2023-03-01T10:11:26;10.50;;;7.57;;
36257;SDS011;22294;52.044;4.582;2023-03-01T10:16:56;11.77;;;8.10;;
36257;SDS011;22294;52.044;4.582;2023-03-01T10:19:31;9.45;;;7.07;;
36257;SDS011;22294;52.044;4.582;2023-03-01T10:22:26;9.82;;;6.97;;
36257;SDS011;22294;52.044;4.582;2023-03-01T10:24:53;10.20;;;6.32;;
36257;SDS011;22294;52.044;4.582;2023-03-01T10:28:10;7.53;;;5.80;;
36257;SDS011;22294;52.044;4.582;2023-03-01T10:30:32;9.38;;;6.65;;
36257;SDS011;22294;52.044;4.582;2023-03-01T10:33:03;9.95;;;6.93;;
36257;SDS011;22294;52.044;4.582;2023-03-01T10:35:38;14.32;;;8.20;;
36257;SDS011;22294;52.044;4.582;2023-03-01T10:38:10;13.43;;;7.43;;
36257;SDS011;22294;52.044;4.582;2023-03-01T10:43:22;10.48;;;7.80;;
36257;SDS011;22294;52.044;4.582;2023-03-01T10:45:48;15.95;;;9.73;;
36257;SDS011;22294;52.044;4.582;2023-03-01T10:48:15;15.18;;;9.43;;
36257;SDS011;22294;52.044;4.582;2023-03-01T10:50:49;15.23;;;10.32;;
36257;SDS011;22294;52.044;4.582;2023-03-01T10:53:24;16.17;;;10.40;;
36257;SDS011;22294;52.044;4.582;2023-03-01T10:55:57;14.57;;;9.02;;
36257;SDS011;22294;52.044;4.582;2023-03-01T10:58:23;14.23;;;10.10;;
36257;SDS011;22294;52.044;4.582;2023-03-01T11:00:50;12.75;;;8.98;;
36257;SDS011;22294;52.044;4.582;2023-03-01T11:03:19;13.93;;;9.07;;
36257;SDS011;22294;52.044;4.582;2023-03-01T11:08:32;15.55;;;9.25;;
36257;SDS011;22294;52.044;4.582;2023-03-01T11:11:04;14.05;;;9.70;;
36257;SDS011;22294;52.044;4.582;2023-03-01T11:16:35;14.88;;;9.45;;
36257;SDS011;22294;52.044;4.582;2023-03-01T11:21:33;13.30;;;8.73;;
36257;SDS011;22294;52.044;4.582;2023-03-01T11:24:02;16.65;;;9.57;;
36257;SDS011;22294;52.044;4.582;2023-03-01T11:26:31;15.75;;;9.73;;
36257;SDS011;22294;52.044;4.582;2023-03-01T11:29:02;12.15;;;8.43;;
36257;SDS011;22294;52.044;4.582;2023-03-01T11:31:32;15.48;;;9.45;;
36257;SDS011;22294;52.044;4.582;2023-03-01T11:33:59;13.73;;;9.73;;
36257;SDS011;22294;52.044;4.582;2023-03-01T11:37:16;15.75;;;9.57;;
36257;SDS011;22294;52.044;4.582;2023-03-01T11:41:56;14.55;;;10.50;;
36257;SDS011;22294;52.044;4.582;2023-03-01T11:44:43;14.05;;;9.93;;
36257;SDS011;22294;52.044;4.582;2023-03-01T11:47:19;16.70;;;9.13;;
36257;SDS011;22294;52.044;4.582;2023-03-01T11:52:59;12.43;;;8.95;;
36257;SDS011;22294;52.044;4.582;2023-03-01T11:55:36;17.40;;;10.95;;
36257;SDS011;22294;52.044;4.582;2023-03-01T11:58:16;17.23;;;10.65;;
36257;SDS011;22294;52.044;4.582;2023-03-01T12:01:02;16.05;;;10.38;;
36257;SDS011;22294;52.044;4.582;2023-03-01T12:09:09;17.40;;;11.02;;
36257;SDS011;22294;52.044;4.582;2023-03-01T12:20:37;17.58;;;9.63;;
36257;SDS011;22294;52.044;4.582;2023-03-01T12:37:11;11.50;;;7.95;;
36257;SDS011;22294;52.044;4.582;2023-03-01T12:42:55;17.45;;;9.18;;
36257;SDS011;22294;52.044;4.582;2023-03-01T12:48:32;14.32;;;7.95;;
36257;SDS011;22294;52.044;4.582;2023-03-01T12:51:07;10.30;;;7.78;;
36257;SDS011;22294;52.044;4.582;2023-03-01T12:53:46;13.88;;;8.40;;
36257;SDS011;22294;52.044;4.582;2023-03-01T12:56:15;12.25;;;7.95;;
36257;SDS011;22294;52.044;4.582;2023-03-01T13:07:19;9.68;;;6.47;;
36257;SDS011;22294;52.044;4.582;2023-03-01T13:17:58;9.52;;;5.82;;
36257;SDS011;22294;52.044;4.582;2023-03-01T13:20:45;11.00;;;6.38;;
36257;SDS011;22294;52.044;4.582;2023-03-01T13:30:59;10.52;;;6.32;;
36257;SDS011;22294;52.044;4.582;2023-03-01T13:35:51;9.47;;;5.80;;
36257;SDS011;22294;52.044;4.582;2023-03-01T13:41:12;8.20;;;5.03;;
36257;SDS011;22294;52.044;4.582;2023-03-01T13:43:40;8.82;;;5.07;;
36257;SDS011;22294;52.044;4.582;2023-03-01T13:46:08;8.82;;;4.97;;
36257;SDS011;22294;52.044;4.582;2023-03-01T13:48:52;9.73;;;5.50;;
36257;SDS011;22294;52.044;4.582;2023-03-01T13:51:25;9.82;;;6.03;;
36257;SDS011;22294;52.044;4.582;2023-03-01T13:53:53;9.23;;;5.90;;
36257;SDS011;22294;52.044;4.582;2023-03-01T13:56:24;7.65;;;5.10;;
36257;SDS011;22294;52.044;4.582;2023-03-01T14:01:29;8.02;;;4.93;;
36257;SDS011;22294;52.044;4.582;2023-03-01T14:03:57;8.75;;;4.95;;
36257;SDS011;22294;52.044;4.582;2023-03-01T14:06:24;7.30;;;5.22;;
36257;SDS011;22294;52.044;4.582;2023-03-01T14:09:02;8.48;;;5.70;;
36257;SDS011;22294;52.044;4.582;2023-03-01T14:20:16;8.02;;;5.25;;
36257;SDS011;22294;52.044;4.582;2023-03-01T14:22:44;7.35;;;5.07;;
36257;SDS011;22294;52.044;4.582;2023-03-01T14:28:30;10.27;;;5.45;;
36257;SDS011;22294;52.044;4.582;2023-03-01T14:31:02;9.52;;;5.50;;
36257;SDS011;22294;52.044;4.582;2023-03-01T14:33:29;11.90;;;5.85;;
36257;SDS011;22294;52.044;4.582;2023-03-01T14:36:02;8.75;;;5.47;;
36257;SDS011;22294;52.044;4.582;2023-03-01T14:38:29;8.85;;;6.22;;
36257;SDS011;22294;52.044;4.582;2023-03-01T14:41:01;9.82;;;6.15;;
36257;SDS011;22294;52.044;4.582;2023-03-01T14:43:49;9.13;;;5.38;;
36257;SDS011;22294;52.044;4.582;2023-03-01T14:46:21;9.45;;;5.90;;
36257;SDS011;22294;52.044;4.582;2023-03-01T14:48:54;8.48;;;6.07;;
36257;SDS011;22294;52.044;4.582;2023-03-01T14:51:25;11.85;;;5.80;;
36257;SDS011;22294;52.044;4.582;2023-03-01T14:53:51;7.40;;;5.60;;
36257;SDS011;22294;52.044;4.582;2023-03-01T14:56:16;9.52;;;5.25;;
36257;SDS011;22294;52.044;4.582;2023-03-01T14:58:42;7.50;;;4.90;;
36257;SDS011;22294;52.044;4.582;2023-03-01T15:01:13;7.10;;;4.95;;
36257;SDS011;22294;52.044;4.582;2023-03-01T15:03:45;8.02;;;5.05;;
36257;SDS011;22294;52.044;4.582;2023-03-01T15:06:16;7.10;;;4.72;;
36257;SDS011;22294;52.044;4.582;2023-03-01T15:08:48;10.38;;;5.60;;
36257;SDS011;22294;52.044;4.582;2023-03-01T15:11:23;8.13;;;4.25;;
36257;SDS011;22294;52.044;4.582;2023-03-01T15:13:52;8.15;;;4.55;;
36257;SDS011;22294;52.044;4.582;2023-03-01T15:16:19;7.43;;;4.53;;
36257;SDS011;22294;52.044;4.582;2023-03-01T15:19:03;10.10;;;5.18;;
36257;SDS011;22294;52.044;4.582;2023-03-01T15:21:31;7.93;;;4.68;;
36257;SDS011;22294;52.044;4.582;2023-03-01T15:26:43;11.32;;;5.38;;
36257;SDS011;22294;52.044;4.582;2023-03-01T15:29:16;7.68;;;5.03;;
36257;SDS011;22294;52.044;4.582;2023-03-01T15:31:50;9.57;;;5.10;;
36257;SDS011;22294;52.044;4.582;2023-03-01T15:34:24;8.43;;;5.05;;
36257;SDS011;22294;52.044;4.582;2023-03-01T15:36:54;7.45;;;4.70;;
36257;SDS011;22294;52.044;4.582;2023-03-01T15:45:07;8.40;;;5.15;;
36257;SDS011;22294;52.044;4.582;2023-03-01T15:47:32;9.18;;;5.07;;
36257;SDS011;22294;52.044;4.582;2023-03-01T15:50:00;7.25;;;4.90;;
36257;SDS011;22294;52.044;4.582;2023-03-01T15:52:27;9.88;;;5.32;;
36257;SDS011;22294;52.044;4.582;2023-03-01T15:54:57;10.52;;;5.72;;
36257;SDS011;22294;52.044;4.582;2023-03-01T15:57:24;9.48;;;5.13;;
36257;SDS011;22294;52.044;4.582;2023-03-01T15:59:49;7.72;;;5.22;;
36257;SDS011;22294;52.044;4.582;2023-03-01T16:02:15;10.00;;;5.82;;
36257;SDS011;22294;52.044;4.582;2023-03-01T16:04:40;8.65;;;5.60;;
36257;SDS011;22294;52.044;4.582;2023-03-01T16:07:05;9.27;;;5.80;;
36257;SDS011;22294;52.044;4.582;2023-03-01T16:09:31;12.63;;;6.00;;
36257;SDS011;22294;52.044;4.582;2023-03-01T16:11:57;9.27;;;5.75;;
36257;SDS011;22294;52.044;4.582;2023-03-01T16:14:22;7.95;;;5.10;;
36257;SDS011;22294;52.044;4.582;2023-03-01T16:16:48;8.95;;;5.70;;
36257;SDS011;22294;52.044;4.582;2023-03-01T16:19:14;8.57;;;5.75;;
36257;SDS011;22294;52.044;4.582;2023-03-01T16:21:40;7.28;;;5.30;;
36257;SDS011;22294;52.044;4.582;2023-03-01T16:24:07;10.18;;;5.97;;
36257;SDS011;22294;52.044;4.582;2023-03-01T16:26:33;9.73;;;5.65;;
36257;SDS011;22294;52.044;4.582;2023-03-01T16:28:59;10.35;;;5.25;;
36257;SDS011;22294;52.044;4.582;2023-03-01T16:31:24;6.78;;;5.10;;
36257;SDS011;22294;52.044;4.582;2023-03-01T16:33:53;10.27;;;5.75;;
36257;SDS011;22294;52.044;4.582;2023-03-01T16:36:19;8.68;;;5.80;;
36257;SDS011;22294;52.044;4.582;2023-03-01T16:38:48;8.45;;;5.70;;
36257;SDS011;22294;52.044;4.582;2023-03-01T16:41:15;11.10;;;6.20;;
36257;SDS011;22294;52.044;4.582;2023-03-01T16:43:42;9.15;;;6.18;;